sensor_id;sensor_type;location;lat;lon;timestamp;P1;durP1;ratioP1;P2;durP2;ratioP2
79268;SDS011;68714;48.586;7.772;2023-05-10T00:00:32;0.75;;;0.63;;
79268;SDS011;68714;48.586;7.772;2023-05-10T00:02:58;1.00;;;0.80;;
79268;SDS011;68714;48.586;7.772;2023-05-10T00:05:23;1.58;;;0.80;;
79268;SDS011;68714;48.586;7.772;2023-05-10T00:07:48;2.45;;;0.98;;
79268;SDS011;68714;48.586;7.772;2023-05-10T00:10:14;1.10;;;0.70;;
79268;SDS011;68714;48.586;7.772;2023-05-10T00:12:39;1.77;;;0.70;;
79268;SDS011;68714;48.586;7.772;2023-05-10T00:15:05;1.42;;;0.73;;
79268;SDS011;68714;48.586;7.772;2023-05-10T00:17:31;1.00;;;0.63;;
79268;SDS011;68714;48.586;7.772;2023-05-10T00:19:56;0.68;;;0.55;;
79268;SDS011;68714;48.586;7.772;2023-05-10T00:22:22;1.63;;;0.60;;
79268;SDS011;68714;48.586;7.772;2023-05-10T00:24:48;0.95;;;0.60;;
79268;SDS011;68714;48.586;7.772;2023-05-10T00:27:13;1.58;;;0.60;;
79268;SDS011;68714;48.586;7.772;2023-05-10T00:29:38;0.40;;;0.40;;
79268;SDS011;68714;48.586;7.772;2023-05-10T00:32:04;1.10;;;0.55;;
79268;SDS011;68714;48.586;7.772;2023-05-10T00:34:29;0.45;;;0.45;;
79268;SDS011;68714;48.586;7.772;2023-05-10T00:36:55;0.82;;;0.40;;
79268;SDS011;68714;48.586;7.772;2023-05-10T00:39:21;1.30;;;0.50;;
79268;SDS011;68714;48.586;7.772;2023-05-10T00:41:46;0.50;;;0.50;;
79268;SDS011;68714;48.586;7.772;2023-05-10T00:44:12;0.65;;;0.40;;
79268;SDS011;68714;48.586;7.772;2023-05-10T00:46:37;0.70;;;0.40;;
79268;SDS011;68714;48.586;7.772;2023-05-10T00:49:02;0.73;;;0.40;;
79268;SDS011;68714;48.586;7.772;2023-05-10T00:51:29;0.57;;;0.40;;
79268;SDS011;68714;48.586;7.772;2023-05-10T00:53:56;0.57;;;0.30;;
79268;SDS011;68714;48.586;7.772;2023-05-10T00:56:21;0.47;;;0.35;;
79268;SDS011;68714;48.586;7.772;2023-05-10T00:58:48;0.40;;;0.40;;
79268;SDS011;68714;48.586;7.772;2023-05-10T01:01:14;2.13;;;0.60;;
79268;SDS011;68714;48.586;7.772;2023-05-10T01:03:39;0.55;;;0.45;;
79268;SDS011;68714;48.586;7.772;2023-05-10T01:06:05;0.98;;;0.65;;
79268;SDS011;68714;48.586;7.772;2023-05-10T01:08:31;1.20;;;0.60;;
79268;SDS011;68714;48.586;7.772;2023-05-10T01:10:57;0.60;;;0.50;;
79268;SDS011;68714;48.586;7.772;2023-05-10T01:13:41;3.72;;;0.57;;
79268;SDS011;68714;48.586;7.772;2023-05-10T01:16:08;0.43;;;0.32;;
79268;SDS011;68714;48.586;7.772;2023-05-10T01:18:35;1.48;;;0.60;;
79268;SDS011;68714;48.586;7.772;2023-05-10T01:29:41;0.35;;;0.35;;
79268;SDS011;68714;48.586;7.772;2023-05-10T01:40:08;2.33;;;0.90;;
79268;SDS011;68714;48.586;7.772;2023-05-10T01:42:44;0.93;;;0.80;;
79268;SDS011;68714;48.586;7.772;2023-05-10T01:45:20;0.80;;;0.55;;
79268;SDS011;68714;48.586;7.772;2023-05-10T01:48:10;3.13;;;0.70;;
79268;SDS011;68714;48.586;7.772;2023-05-10T01:50:36;1.20;;;0.68;;
79268;SDS011;68714;48.586;7.772;2023-05-10T01:53:08;1.15;;;0.50;;
79268;SDS011;68714;48.586;7.772;2023-05-10T01:55:39;1.23;;;0.40;;
79268;SDS011;68714;48.586;7.772;2023-05-10T01:58:13;0.52;;;0.40;;
79268;SDS011;68714;48.586;7.772;2023-05-10T02:00:42;0.22;;;0.22;;
79268;SDS011;68714;48.586;7.772;2023-05-10T02:03:09;3.10;;;0.60;;
79268;SDS011;68714;48.586;7.772;2023-05-10T02:05:36;0.75;;;0.40;;
79268;SDS011;68714;48.586;7.772;2023-05-10T02:08:02;1.42;;;0.50;;
79268;SDS011;68714;48.586;7.772;2023-05-10T02:10:32;0.60;;;0.40;;
79268;SDS011;68714;48.586;7.772;2023-05-10T02:12:59;0.80;;;0.55;;
79268;SDS011;68714;48.586;7.772;2023-05-10T02:15:26;3.63;;;0.50;;
79268;SDS011;68714;48.586;7.772;2023-05-10T02:17:54;0.50;;;0.40;;
79268;SDS011;68714;48.586;7.772;2023-05-10T02:20:21;0.50;;;0.47;;
79268;SDS011;68714;48.586;7.772;2023-05-10T02:22:49;0.82;;;0.40;;
79268;SDS011;68714;48.586;7.772;2023-05-10T02:25:17;1.10;;;0.50;;
79268;SDS011;68714;48.586;7.772;2023-05-10T02:27:44;0.40;;;0.40;;
79268;SDS011;68714;48.586;7.772;2023-05-10T02:30:10;0.47;;;0.40;;
79268;SDS011;68714;48.586;7.772;2023-05-10T02:32:37;1.83;;;0.40;;
79268;SDS011;68714;48.586;7.772;2023-05-10T02:35:04;0.68;;;0.40;;
79268;SDS011;68714;48.586;7.772;2023-05-10T02:37:31;0.90;;;0.40;;
79268;SDS011;68714;48.586;7.772;2023-05-10T02:39:58;0.80;;;0.40;;
79268;SDS011;68714;48.586;7.772;2023-05-10T02:42:24;0.40;;;0.40;;
79268;SDS011;68714;48.586;7.772;2023-05-10T02:44:53;0.50;;;0.40;;
79268;SDS011;68714;48.586;7.772;2023-05-10T02:47:25;0.45;;;0.30;;
79268;SDS011;68714;48.586;7.772;2023-05-10T02:49:50;0.60;;;0.40;;
79268;SDS011;68714;48.586;7.772;2023-05-10T02:52:18;0.63;;;0.40;;
79268;SDS011;68714;48.586;7.772;2023-05-10T02:54:48;0.60;;;0.20;;
79268;SDS011;68714;48.586;7.772;2023-05-10T02:57:17;0.30;;;0.30;;
79268;SDS011;68714;48.586;7.772;2023-05-10T02:59:49;1.85;;;0.50;;
79268;SDS011;68714;48.586;7.772;2023-05-10T03:02:15;0.60;;;0.40;;
79268;SDS011;68714;48.586;7.772;2023-05-10T03:04:41;0.40;;;0.40;;
79268;SDS011;68714;48.586;7.772;2023-05-10T03:07:06;0.68;;;0.50;;
79268;SDS011;68714;48.586;7.772;2023-05-10T03:09:32;0.98;;;0.68;;
79268;SDS011;68714;48.586;7.772;2023-05-10T03:14:42;1.85;;;0.40;;
79268;SDS011;68714;48.586;7.772;2023-05-10T03:19:57;2.40;;;0.70;;
79268;SDS011;68714;48.586;7.772;2023-05-10T03:22:37;3.03;;;0.60;;
79268;SDS011;68714;48.586;7.772;2023-05-10T03:25:06;1.95;;;0.60;;
79268;SDS011;68714;48.586;7.772;2023-05-10T03:27:33;0.50;;;0.50;;
79268;SDS011;68714;48.586;7.772;2023-05-10T03:30:01;0.55;;;0.55;;
79268;SDS011;68714;48.586;7.772;2023-05-10T03:32:28;1.13;;;0.60;;
79268;SDS011;68714;48.586;7.772;2023-05-10T03:34:55;1.30;;;0.60;;
79268;SDS011;68714;48.586;7.772;2023-05-10T03:37:20;1.70;;;0.70;;
79268;SDS011;68714;48.586;7.772;2023-05-10T03:39:46;0.77;;;0.55;;
79268;SDS011;68714;48.586;7.772;2023-05-10T03:42:11;1.88;;;0.70;;
79268;SDS011;68714;48.586;7.772;2023-05-10T03:44:37;1.35;;;0.70;;
79268;SDS011;68714;48.586;7.772;2023-05-10T03:47:05;1.77;;;0.73;;
79268;SDS011;68714;48.586;7.772;2023-05-10T03:49:31;0.70;;;0.60;;
79268;SDS011;68714;48.586;7.772;2023-05-10T03:51:56;1.52;;;0.73;;
79268;SDS011;68714;48.586;7.772;2023-05-10T03:54:21;0.82;;;0.60;;
79268;SDS011;68714;48.586;7.772;2023-05-10T03:56:47;0.68;;;0.68;;
79268;SDS011;68714;48.586;7.772;2023-05-10T03:59:13;1.63;;;0.60;;
79268;SDS011;68714;48.586;7.772;2023-05-10T04:01:38;2.97;;;0.90;;
79268;SDS011;68714;48.586;7.772;2023-05-10T04:04:04;2.60;;;1.10;;
79268;SDS011;68714;48.586;7.772;2023-05-10T04:06:29;4.20;;;0.88;;
79268;SDS011;68714;48.586;7.772;2023-05-10T04:08:55;1.40;;;0.80;;
79268;SDS011;68714;48.586;7.772;2023-05-10T04:11:21;1.27;;;0.80;;
79268;SDS011;68714;48.586;7.772;2023-05-10T04:13:46;1.40;;;0.77;;
79268;SDS011;68714;48.586;7.772;2023-05-10T04:16:12;1.13;;;0.82;;
79268;SDS011;68714;48.586;7.772;2023-05-10T04:18:37;1.33;;;0.88;;
79268;SDS011;68714;48.586;7.772;2023-05-10T04:21:04;2.35;;;0.90;;
79268;SDS011;68714;48.586;7.772;2023-05-10T04:23:35;2.35;;;1.00;;
79268;SDS011;68714;48.586;7.772;2023-05-10T04:26:01;3.28;;;1.42;;
79268;SDS011;68714;48.586;7.772;2023-05-10T04:28:27;0.77;;;0.70;;
79268;SDS011;68714;48.586;7.772;2023-05-10T04:30:52;1.23;;;0.88;;
79268;SDS011;68714;48.586;7.772;2023-05-10T04:33:18;1.65;;;0.88;;
79268;SDS011;68714;48.586;7.772;2023-05-10T04:35:43;1.73;;;0.93;;
79268;SDS011;68714;48.586;7.772;2023-05-10T04:38:10;1.20;;;0.77;;
79268;SDS011;68714;48.586;7.772;2023-05-10T04:40:35;1.25;;;0.90;;
79268;SDS011;68714;48.586;7.772;2023-05-10T04:43:00;1.42;;;1.15;;
79268;SDS011;68714;48.586;7.772;2023-05-10T04:45:26;1.42;;;1.10;;
79268;SDS011;68714;48.586;7.772;2023-05-10T04:47:51;1.77;;;0.98;;
79268;SDS011;68714;48.586;7.772;2023-05-10T04:50:17;2.15;;;0.90;;
79268;SDS011;68714;48.586;7.772;2023-05-10T04:52:42;2.42;;;0.90;;
79268;SDS011;68714;48.586;7.772;2023-05-10T04:55:07;1.00;;;0.70;;
79268;SDS011;68714;48.586;7.772;2023-05-10T04:57:34;1.15;;;0.93;;
79268;SDS011;68714;48.586;7.772;2023-05-10T05:00:00;3.33;;;1.20;;
79268;SDS011;68714;48.586;7.772;2023-05-10T05:02:25;1.20;;;0.70;;
79268;SDS011;68714;48.586;7.772;2023-05-10T05:04:51;2.20;;;0.90;;
79268;SDS011;68714;48.586;7.772;2023-05-10T05:07:16;1.35;;;0.77;;
79268;SDS011;68714;48.586;7.772;2023-05-10T05:09:41;0.93;;;0.68;;
79268;SDS011;68714;48.586;7.772;2023-05-10T05:12:07;1.15;;;0.60;;
79268;SDS011;68714;48.586;7.772;2023-05-10T05:14:32;2.25;;;0.60;;
79268;SDS011;68714;48.586;7.772;2023-05-10T05:16:58;1.00;;;0.63;;
79268;SDS011;68714;48.586;7.772;2023-05-10T05:19:23;1.58;;;0.70;;
79268;SDS011;68714;48.586;7.772;2023-05-10T05:21:48;0.95;;;0.60;;
79268;SDS011;68714;48.586;7.772;2023-05-10T05:24:14;0.98;;;0.63;;
79268;SDS011;68714;48.586;7.772;2023-05-10T05:26:40;1.70;;;0.70;;
79268;SDS011;68714;48.586;7.772;2023-05-10T05:29:05;1.13;;;0.70;;
79268;SDS011;68714;48.586;7.772;2023-05-10T05:31:31;0.90;;;0.50;;
79268;SDS011;68714;48.586;7.772;2023-05-10T05:33:56;0.82;;;0.60;;
79268;SDS011;68714;48.586;7.772;2023-05-10T05:36:21;1.23;;;0.70;;
79268;SDS011;68714;48.586;7.772;2023-05-10T05:38:47;1.48;;;0.57;;
79268;SDS011;68714;48.586;7.772;2023-05-10T05:41:12;0.50;;;0.50;;
79268;SDS011;68714;48.586;7.772;2023-05-10T05:43:38;1.25;;;0.70;;
79268;SDS011;68714;48.586;7.772;2023-05-10T05:46:03;0.90;;;0.60;;
79268;SDS011;68714;48.586;7.772;2023-05-10T05:48:29;1.42;;;0.77;;
79268;SDS011;68714;48.586;7.772;2023-05-10T05:50:55;1.67;;;1.00;;
79268;SDS011;68714;48.586;7.772;2023-05-10T05:53:24;2.53;;;0.70;;
79268;SDS011;68714;48.586;7.772;2023-05-10T05:55:53;0.82;;;0.65;;
79268;SDS011;68714;48.586;7.772;2023-05-10T05:58:22;1.65;;;0.63;;
79268;SDS011;68714;48.586;7.772;2023-05-10T06:00:49;1.75;;;0.63;;
79268;SDS011;68714;48.586;7.772;2023-05-10T06:03:15;1.02;;;0.50;;
79268;SDS011;68714;48.586;7.772;2023-05-10T06:05:41;1.75;;;0.70;;
79268;SDS011;68714;48.586;7.772;2023-05-10T06:08:06;1.95;;;0.90;;
79268;SDS011;68714;48.586;7.772;2023-05-10T06:10:31;1.58;;;1.13;;
79268;SDS011;68714;48.586;7.772;2023-05-10T06:12:57;1.85;;;0.80;;
79268;SDS011;68714;48.586;7.772;2023-05-10T06:15:22;1.52;;;0.90;;
79268;SDS011;68714;48.586;7.772;2023-05-10T06:17:48;4.18;;;0.98;;
79268;SDS011;68714;48.586;7.772;2023-05-10T06:20:14;1.35;;;0.85;;
79268;SDS011;68714;48.586;7.772;2023-05-10T06:22:40;1.02;;;0.80;;
79268;SDS011;68714;48.586;7.772;2023-05-10T06:25:06;1.48;;;0.70;;
79268;SDS011;68714;48.586;7.772;2023-05-10T06:27:31;2.30;;;0.90;;
79268;SDS011;68714;48.586;7.772;2023-05-10T06:29:57;2.58;;;0.90;;
79268;SDS011;68714;48.586;7.772;2023-05-10T06:32:22;2.65;;;1.00;;
79268;SDS011;68714;48.586;7.772;2023-05-10T06:34:48;1.77;;;0.77;;
79268;SDS011;68714;48.586;7.772;2023-05-10T06:37:13;1.23;;;0.88;;
79268;SDS011;68714;48.586;7.772;2023-05-10T06:39:39;1.42;;;0.70;;
79268;SDS011;68714;48.586;7.772;2023-05-10T06:42:04;1.10;;;0.68;;
79268;SDS011;68714;48.586;7.772;2023-05-10T06:44:30;1.00;;;0.70;;
79268;SDS011;68714;48.586;7.772;2023-05-10T06:46:55;2.58;;;1.00;;
79268;SDS011;68714;48.586;7.772;2023-05-10T06:49:21;3.28;;;1.20;;
79268;SDS011;68714;48.586;7.772;2023-05-10T06:51:47;2.25;;;1.08;;
79268;SDS011;68714;48.586;7.772;2023-05-10T06:54:13;2.13;;;1.13;;
79268;SDS011;68714;48.586;7.772;2023-05-10T06:56:38;1.25;;;0.77;;
79268;SDS011;68714;48.586;7.772;2023-05-10T06:59:04;1.15;;;0.70;;
79268;SDS011;68714;48.586;7.772;2023-05-10T07:01:29;1.60;;;0.70;;
79268;SDS011;68714;48.586;7.772;2023-05-10T07:03:55;2.10;;;0.73;;
79268;SDS011;68714;48.586;7.772;2023-05-10T07:06:20;0.95;;;0.60;;
79268;SDS011;68714;48.586;7.772;2023-05-10T07:08:46;1.25;;;0.75;;
79268;SDS011;68714;48.586;7.772;2023-05-10T07:11:11;1.42;;;0.70;;
79268;SDS011;68714;48.586;7.772;2023-05-10T07:13:37;1.20;;;0.88;;
79268;SDS011;68714;48.586;7.772;2023-05-10T07:16:04;1.40;;;0.90;;
79268;SDS011;68714;48.586;7.772;2023-05-10T07:18:33;1.10;;;0.60;;
79268;SDS011;68714;48.586;7.772;2023-05-10T07:20:58;1.63;;;0.80;;
79268;SDS011;68714;48.586;7.772;2023-05-10T07:23:24;1.80;;;0.80;;
79268;SDS011;68714;48.586;7.772;2023-05-10T07:25:50;1.27;;;0.55;;
79268;SDS011;68714;48.586;7.772;2023-05-10T07:28:17;2.30;;;0.70;;
79268;SDS011;68714;48.586;7.772;2023-05-10T07:30:42;1.60;;;0.80;;
79268;SDS011;68714;48.586;7.772;2023-05-10T07:33:09;1.55;;;0.75;;
79268;SDS011;68714;48.586;7.772;2023-05-10T07:35:36;1.23;;;0.60;;
79268;SDS011;68714;48.586;7.772;2023-05-10T07:38:02;1.90;;;0.80;;
79268;SDS011;68714;48.586;7.772;2023-05-10T07:40:27;1.05;;;0.47;;
79268;SDS011;68714;48.586;7.772;2023-05-10T07:42:53;2.55;;;0.60;;
79268;SDS011;68714;48.586;7.772;2023-05-10T07:45:19;1.80;;;0.70;;
79268;SDS011;68714;48.586;7.772;2023-05-10T07:47:45;3.75;;;1.95;;
79268;SDS011;68714;48.586;7.772;2023-05-10T07:50:10;1.98;;;1.00;;
79268;SDS011;68714;48.586;7.772;2023-05-10T07:52:36;0.95;;;0.60;;
79268;SDS011;68714;48.586;7.772;2023-05-10T07:55:01;2.22;;;0.57;;
79268;SDS011;68714;48.586;7.772;2023-05-10T07:57:27;2.70;;;0.40;;
79268;SDS011;68714;48.586;7.772;2023-05-10T07:59:52;0.88;;;0.40;;
79268;SDS011;68714;48.586;7.772;2023-05-10T08:02:18;0.93;;;0.40;;
79268;SDS011;68714;48.586;7.772;2023-05-10T08:04:43;0.55;;;0.30;;
79268;SDS011;68714;48.586;7.772;2023-05-10T08:07:08;2.75;;;0.50;;
79268;SDS011;68714;48.586;7.772;2023-05-10T08:09:34;0.30;;;0.30;;
79268;SDS011;68714;48.586;7.772;2023-05-10T08:11:59;0.85;;;0.40;;
79268;SDS011;68714;48.586;7.772;2023-05-10T08:14:25;1.00;;;0.47;;
79268;SDS011;68714;48.586;7.772;2023-05-10T08:16:52;0.63;;;0.55;;
79268;SDS011;68714;48.586;7.772;2023-05-10T08:19:17;1.48;;;0.60;;
79268;SDS011;68714;48.586;7.772;2023-05-10T08:21:44;1.95;;;0.82;;
79268;SDS011;68714;48.586;7.772;2023-05-10T08:24:10;1.40;;;0.47;;
79268;SDS011;68714;48.586;7.772;2023-05-10T08:26:36;2.15;;;0.63;;
79268;SDS011;68714;48.586;7.772;2023-05-10T08:29:01;1.08;;;0.60;;
79268;SDS011;68714;48.586;7.772;2023-05-10T08:31:28;1.77;;;0.60;;
79268;SDS011;68714;48.586;7.772;2023-05-10T08:33:53;0.90;;;0.60;;
79268;SDS011;68714;48.586;7.772;2023-05-10T08:36:19;0.55;;;0.50;;
79268;SDS011;68714;48.586;7.772;2023-05-10T08:38:52;1.13;;;0.50;;
79268;SDS011;68714;48.586;7.772;2023-05-10T08:43:47;0.85;;;0.50;;
79268;SDS011;68714;48.586;7.772;2023-05-10T08:46:15;2.85;;;0.60;;
79268;SDS011;68714;48.586;7.772;2023-05-10T08:48:42;0.75;;;0.50;;
79268;SDS011;68714;48.586;7.772;2023-05-10T08:51:09;1.45;;;0.60;;
79268;SDS011;68714;48.586;7.772;2023-05-10T08:53:38;1.65;;;0.50;;
79268;SDS011;68714;48.586;7.772;2023-05-10T08:56:04;0.57;;;0.57;;
79268;SDS011;68714;48.586;7.772;2023-05-10T08:58:30;1.20;;;0.60;;
79268;SDS011;68714;48.586;7.772;2023-05-10T09:00:56;1.80;;;0.50;;
79268;SDS011;68714;48.586;7.772;2023-05-10T09:03:22;0.93;;;0.60;;
79268;SDS011;68714;48.586;7.772;2023-05-10T09:05:48;1.20;;;0.50;;
79268;SDS011;68714;48.586;7.772;2023-05-10T09:08:14;2.92;;;0.80;;
79268;SDS011;68714;48.586;7.772;2023-05-10T09:10:41;3.88;;;0.80;;
79268;SDS011;68714;48.586;7.772;2023-05-10T09:13:09;3.67;;;0.95;;
79268;SDS011;68714;48.586;7.772;2023-05-10T09:15:36;2.80;;;0.70;;
79268;SDS011;68714;48.586;7.772;2023-05-10T09:18:01;1.45;;;0.55;;
79268;SDS011;68714;48.586;7.772;2023-05-10T09:20:27;3.33;;;0.65;;
79268;SDS011;68714;48.586;7.772;2023-05-10T09:22:53;1.65;;;0.57;;
79268;SDS011;68714;48.586;7.772;2023-05-10T09:25:19;1.83;;;0.75;;
79268;SDS011;68714;48.586;7.772;2023-05-10T09:27:45;2.58;;;0.98;;
79268;SDS011;68714;48.586;7.772;2023-05-10T09:32:50;1.33;;;0.50;;
79268;SDS011;68714;48.586;7.772;2023-05-10T09:35:20;1.15;;;0.60;;
79268;SDS011;68714;48.586;7.772;2023-05-10T09:37:48;0.75;;;0.40;;
79268;SDS011;68714;48.586;7.772;2023-05-10T09:40:19;1.77;;;0.60;;
79268;SDS011;68714;48.586;7.772;2023-05-10T09:42:59;1.40;;;0.50;;
79268;SDS011;68714;48.586;7.772;2023-05-10T09:45:26;5.15;;;0.75;;
79268;SDS011;68714;48.586;7.772;2023-05-10T09:47:53;1.27;;;0.60;;
79268;SDS011;68714;48.586;7.772;2023-05-10T09:50:20;2.80;;;0.70;;
79268;SDS011;68714;48.586;7.772;2023-05-10T09:52:50;5.93;;;0.85;;
79268;SDS011;68714;48.586;7.772;2023-05-10T09:55:18;3.33;;;1.23;;
79268;SDS011;68714;48.586;7.772;2023-05-10T09:57:47;0.60;;;0.40;;
79268;SDS011;68714;48.586;7.772;2023-05-10T10:00:18;1.73;;;0.40;;
79268;SDS011;68714;48.586;7.772;2023-05-10T10:02:48;2.00;;;0.60;;
79268;SDS011;68714;48.586;7.772;2023-05-10T10:05:19;2.67;;;0.95;;
79268;SDS011;68714;48.586;7.772;2023-05-10T10:07:45;2.17;;;0.68;;
79268;SDS011;68714;48.586;7.772;2023-05-10T10:10:10;1.45;;;0.50;;
79268;SDS011;68714;48.586;7.772;2023-05-10T10:12:38;1.90;;;0.60;;
79268;SDS011;68714;48.586;7.772;2023-05-10T10:15:05;1.63;;;0.73;;
79268;SDS011;68714;48.586;7.772;2023-05-10T10:17:35;1.10;;;0.45;;
79268;SDS011;68714;48.586;7.772;2023-05-10T10:20:02;2.25;;;0.50;;
79268;SDS011;68714;48.586;7.772;2023-05-10T10:22:28;2.45;;;0.70;;
79268;SDS011;68714;48.586;7.772;2023-05-10T10:24:54;3.28;;;0.80;;
79268;SDS011;68714;48.586;7.772;2023-05-10T10:27:22;1.45;;;0.60;;
79268;SDS011;68714;48.586;7.772;2023-05-10T10:30:00;2.05;;;0.60;;
79268;SDS011;68714;48.586;7.772;2023-05-10T10:35:20;1.55;;;0.60;;
79268;SDS011;68714;48.586;7.772;2023-05-10T10:37:47;2.08;;;0.50;;
79268;SDS011;68714;48.586;7.772;2023-05-10T10:40:25;1.38;;;0.40;;
79268;SDS011;68714;48.586;7.772;2023-05-10T10:45:21;0.80;;;0.45;;
79268;SDS011;68714;48.586;7.772;2023-05-10T10:47:47;1.10;;;0.52;;
79268;SDS011;68714;48.586;7.772;2023-05-10T10:50:13;0.52;;;0.43;;
79268;SDS011;68714;48.586;7.772;2023-05-10T10:52:41;2.22;;;0.50;;
79268;SDS011;68714;48.586;7.772;2023-05-10T10:55:11;1.33;;;0.50;;
79268;SDS011;68714;48.586;7.772;2023-05-10T10:57:45;4.15;;;0.50;;
79268;SDS011;68714;48.586;7.772;2023-05-10T11:08:07;0.90;;;0.50;;
79268;SDS011;68714;48.586;7.772;2023-05-10T11:10:35;1.27;;;0.50;;
79268;SDS011;68714;48.586;7.772;2023-05-10T11:13:04;1.55;;;0.40;;
79268;SDS011;68714;48.586;7.772;2023-05-10T11:15:31;1.00;;;0.40;;
79268;SDS011;68714;48.586;7.772;2023-05-10T11:17:58;0.47;;;0.40;;
79268;SDS011;68714;48.586;7.772;2023-05-10T11:20:23;3.15;;;0.50;;
79268;SDS011;68714;48.586;7.772;2023-05-10T11:26:03;0.85;;;0.50;;
79268;SDS011;68714;48.586;7.772;2023-05-10T11:28:34;3.30;;;0.50;;
79268;SDS011;68714;48.586;7.772;2023-05-10T11:31:00;1.23;;;0.50;;
79268;SDS011;68714;48.586;7.772;2023-05-10T11:33:30;1.08;;;0.40;;
79268;SDS011;68714;48.586;7.772;2023-05-10T11:36:17;0.98;;;0.50;;
79268;SDS011;68714;48.586;7.772;2023-05-10T11:39:02;1.20;;;0.47;;
79268;SDS011;68714;48.586;7.772;2023-05-10T11:41:29;0.90;;;0.55;;
79268;SDS011;68714;48.586;7.772;2023-05-10T11:43:58;1.77;;;0.60;;
79268;SDS011;68714;48.586;7.772;2023-05-10T11:46:24;0.88;;;0.40;;
79268;SDS011;68714;48.586;7.772;2023-05-10T11:48:57;1.98;;;0.43;;
79268;SDS011;68714;48.586;7.772;2023-05-10T11:51:26;1.45;;;0.30;;
79268;SDS011;68714;48.586;7.772;2023-05-10T11:53:52;0.30;;;0.30;;
79268;SDS011;68714;48.586;7.772;2023-05-10T11:56:19;2.08;;;0.68;;
79268;SDS011;68714;48.586;7.772;2023-05-10T11:58:47;0.65;;;0.50;;
79268;SDS011;68714;48.586;7.772;2023-05-10T12:01:18;1.02;;;0.50;;
79268;SDS011;68714;48.586;7.772;2023-05-10T12:03:43;0.88;;;0.50;;
79268;SDS011;68714;48.586;7.772;2023-05-10T12:06:11;1.02;;;0.60;;
79268;SDS011;68714;48.586;7.772;2023-05-10T12:08:37;2.05;;;0.60;;
79268;SDS011;68714;48.586;7.772;2023-05-10T12:11:10;0.43;;;0.40;;
79268;SDS011;68714;48.586;7.772;2023-05-10T12:13:41;0.95;;;0.50;;
79268;SDS011;68714;48.586;7.772;2023-05-10T12:18:43;0.95;;;0.40;;
79268;SDS011;68714;48.586;7.772;2023-05-10T12:21:09;1.25;;;0.50;;
79268;SDS011;68714;48.586;7.772;2023-05-10T12:23:38;2.03;;;0.50;;
79268;SDS011;68714;48.586;7.772;2023-05-10T12:26:04;0.52;;;0.30;;
79268;SDS011;68714;48.586;7.772;2023-05-10T12:28:31;0.65;;;0.40;;
79268;SDS011;68714;48.586;7.772;2023-05-10T12:30:58;1.75;;;0.52;;
79268;SDS011;68714;48.586;7.772;2023-05-10T12:33:25;0.70;;;0.40;;
79268;SDS011;68714;48.586;7.772;2023-05-10T12:35:51;0.85;;;0.50;;
79268;SDS011;68714;48.586;7.772;2023-05-10T13:06:48;0.57;;;0.30;;
79268;SDS011;68714;48.586;7.772;2023-05-10T13:09:13;1.50;;;0.60;;
79268;SDS011;68714;48.586;7.772;2023-05-10T13:11:39;0.50;;;0.50;;
79268;SDS011;68714;48.586;7.772;2023-05-10T13:14:04;0.40;;;0.30;;
79268;SDS011;68714;48.586;7.772;2023-05-10T13:16:30;0.70;;;0.40;;
79268;SDS011;68714;48.586;7.772;2023-05-10T13:18:56;0.57;;;0.30;;
79268;SDS011;68714;48.586;7.772;2023-05-10T13:21:22;0.73;;;0.40;;
79268;SDS011;68714;48.586;7.772;2023-05-10T13:23:49;0.30;;;0.30;;
79268;SDS011;68714;48.586;7.772;2023-05-10T13:26:15;1.58;;;0.50;;
79268;SDS011;68714;48.586;7.772;2023-05-10T13:28:41;2.05;;;0.43;;
79268;SDS011;68714;48.586;7.772;2023-05-10T13:31:07;0.52;;;0.30;;
79268;SDS011;68714;48.586;7.772;2023-05-10T13:33:32;1.52;;;0.50;;
79268;SDS011;68714;48.586;7.772;2023-05-10T13:35:58;1.77;;;0.50;;
79268;SDS011;68714;48.586;7.772;2023-05-10T14:33:14;2.20;;;0.43;;
79268;SDS011;68714;48.586;7.772;2023-05-10T14:35:40;1.85;;;0.50;;
79268;SDS011;68714;48.586;7.772;2023-05-10T14:38:06;0.65;;;0.28;;
79268;SDS011;68714;48.586;7.772;2023-05-10T14:40:32;1.30;;;0.30;;
79268;SDS011;68714;48.586;7.772;2023-05-10T14:42:57;0.73;;;0.30;;
79268;SDS011;68714;48.586;7.772;2023-05-10T14:45:22;0.32;;;0.32;;
79268;SDS011;68714;48.586;7.772;2023-05-10T14:47:48;0.50;;;0.40;;
79268;SDS011;68714;48.586;7.772;2023-05-10T14:50:15;1.15;;;0.32;;
79268;SDS011;68714;48.586;7.772;2023-05-10T14:52:41;0.30;;;0.30;;
79268;SDS011;68714;48.586;7.772;2023-05-10T14:55:07;0.88;;;0.50;;
79268;SDS011;68714;48.586;7.772;2023-05-10T14:57:33;0.30;;;0.30;;
79268;SDS011;68714;48.586;7.772;2023-05-10T14:59:58;4.95;;;0.52;;
79268;SDS011;68714;48.586;7.772;2023-05-10T15:02:24;0.95;;;0.47;;
79268;SDS011;68714;48.586;7.772;2023-05-10T15:04:50;1.00;;;0.30;;
79268;SDS011;68714;48.586;7.772;2023-05-10T15:07:15;0.65;;;0.20;;
79268;SDS011;68714;48.586;7.772;2023-05-10T15:09:43;0.32;;;0.30;;
79268;SDS011;68714;48.586;7.772;2023-05-10T15:12:09;0.30;;;0.25;;
79268;SDS011;68714;48.586;7.772;2023-05-10T15:14:34;1.67;;;0.40;;
79268;SDS011;68714;48.586;7.772;2023-05-10T15:17:01;0.40;;;0.30;;
79268;SDS011;68714;48.586;7.772;2023-05-10T15:19:28;0.70;;;0.50;;
79268;SDS011;68714;48.586;7.772;2023-05-10T15:21:56;0.32;;;0.30;;
79268;SDS011;68714;48.586;7.772;2023-05-10T15:24:21;0.57;;;0.40;;
79268;SDS011;68714;48.586;7.772;2023-05-10T15:26:47;0.70;;;0.30;;
79268;SDS011;68714;48.586;7.772;2023-05-10T15:29:13;0.65;;;0.40;;
79268;SDS011;68714;48.586;7.772;2023-05-10T15:31:47;0.30;;;0.30;;
79268;SDS011;68714;48.586;7.772;2023-05-10T15:34:14;0.85;;;0.30;;
79268;SDS011;68714;48.586;7.772;2023-05-10T15:36:39;0.60;;;0.32;;
79268;SDS011;68714;48.586;7.772;2023-05-10T15:39:05;0.77;;;0.30;;
79268;SDS011;68714;48.586;7.772;2023-05-10T15:41:31;0.55;;;0.40;;
79268;SDS011;68714;48.586;7.772;2023-05-10T15:43:57;0.40;;;0.40;;
79268;SDS011;68714;48.586;7.772;2023-05-10T15:46:24;1.15;;;0.32;;
79268;SDS011;68714;48.586;7.772;2023-05-10T15:48:51;0.80;;;0.40;;
79268;SDS011;68714;48.586;7.772;2023-05-10T15:51:16;2.20;;;0.40;;
79268;SDS011;68714;48.586;7.772;2023-05-10T15:53:42;0.77;;;0.40;;
79268;SDS011;68714;48.586;7.772;2023-05-10T15:56:07;1.30;;;0.40;;
79268;SDS011;68714;48.586;7.772;2023-05-10T15:58:33;0.40;;;0.40;;
79268;SDS011;68714;48.586;7.772;2023-05-10T16:00:58;0.70;;;0.40;;
79268;SDS011;68714;48.586;7.772;2023-05-10T16:03:24;0.45;;;0.30;;
79268;SDS011;68714;48.586;7.772;2023-05-10T16:05:49;0.88;;;0.40;;
79268;SDS011;68714;48.586;7.772;2023-05-10T16:08:15;0.50;;;0.38;;
79268;SDS011;68714;48.586;7.772;2023-05-10T16:10:41;0.50;;;0.45;;
79268;SDS011;68714;48.586;7.772;2023-05-10T16:13:07;1.17;;;0.50;;
79268;SDS011;68714;48.586;7.772;2023-05-10T16:15:32;1.95;;;0.63;;
79268;SDS011;68714;48.586;7.772;2023-05-10T16:17:58;2.05;;;0.40;;
79268;SDS011;68714;48.586;7.772;2023-05-10T16:20:23;0.45;;;0.40;;
79268;SDS011;68714;48.586;7.772;2023-05-10T16:22:49;0.65;;;0.45;;
79268;SDS011;68714;48.586;7.772;2023-05-10T16:25:14;0.50;;;0.40;;
79268;SDS011;68714;48.586;7.772;2023-05-10T16:27:42;1.27;;;0.43;;
79268;SDS011;68714;48.586;7.772;2023-05-10T16:30:08;0.65;;;0.50;;
79268;SDS011;68714;48.586;7.772;2023-05-10T16:32:34;2.38;;;0.40;;
79268;SDS011;68714;48.586;7.772;2023-05-10T16:34:59;0.98;;;0.40;;
79268;SDS011;68714;48.586;7.772;2023-05-10T16:37:25;0.40;;;0.30;;
79268;SDS011;68714;48.586;7.772;2023-05-10T16:39:50;0.85;;;0.38;;
79268;SDS011;68714;48.586;7.772;2023-05-10T16:42:16;1.15;;;0.55;;
79268;SDS011;68714;48.586;7.772;2023-05-10T16:44:42;0.73;;;0.50;;
79268;SDS011;68714;48.586;7.772;2023-05-10T16:47:07;0.73;;;0.43;;
79268;SDS011;68714;48.586;7.772;2023-05-10T16:49:34;1.52;;;0.90;;
79268;SDS011;68714;48.586;7.772;2023-05-10T16:52:00;0.80;;;0.50;;
79268;SDS011;68714;48.586;7.772;2023-05-10T16:54:27;0.63;;;0.35;;